sensor_id;sensor_type;location;lat;lon;timestamp;P1;P2;P0
61879;PMS7003;47817;52.798;27.544;2023-05-07T00:01:35;1.6;1;1
61879;PMS7003;47817;52.798;27.544;2023-05-07T00:06:15;1.4;1;1
61879;PMS7003;47817;52.798;27.544;2023-05-07T00:11:31;1.6;1;0.8
61879;PMS7003;47817;52.798;27.544;2023-05-07T00:17:05;1;0.8;0.8
61879;PMS7003;47817;52.798;27.544;2023-05-07T00:21:29;1.4;1;0.8
61879;PMS7003;47817;52.798;27.544;2023-05-07T00:27:01;0.5;0.5;0.5
61879;PMS7003;47817;52.798;27.544;2023-05-07T00:32:01;1.6;1.2;0.8
61879;PMS7003;47817;52.798;27.544;2023-05-07T00:36:49;1.8;0.6;0.6
61879;PMS7003;47817;52.798;27.544;2023-05-07T00:41:27;1.4;1.4;1
61879;PMS7003;47817;52.798;27.544;2023-05-07T00:46:25;1.8;1;0.8
61879;PMS7003;47817;52.798;27.544;2023-05-07T00:51:53;1.2;1;1
61879;PMS7003;47817;52.798;27.544;2023-05-07T00:56:45;1.5;1.5;1
61879;PMS7003;47817;52.798;27.544;2023-05-07T01:01:27;0.6;0.6;0.6
61879;PMS7003;47817;52.798;27.544;2023-05-07T01:07:01;1.6;1.2;0.8
61879;PMS7003;47817;52.798;27.544;2023-05-07T01:11:59;1;0.6;0.6
61879;PMS7003;47817;52.798;27.544;2023-05-07T01:16:21;2.6;1.2;1
61879;PMS7003;47817;52.798;27.544;2023-05-07T01:21:42;1.6;1.2;0.8
61879;PMS7003;47817;52.798;27.544;2023-05-07T01:26:35;1.3;0.5;0.3
61879;PMS7003;47817;52.798;27.544;2023-05-07T01:31:25;2;0.8;0.8
61879;PMS7003;47817;52.798;27.544;2023-05-07T01:36:25;2.2;0.8;0.6
61879;PMS7003;47817;52.798;27.544;2023-05-07T01:41:49;1.2;1;0.6
61879;PMS7003;47817;52.798;27.544;2023-05-07T01:46:15;1;0.8;0.4
61879;PMS7003;47817;52.798;27.544;2023-05-07T01:52:01;1.6;1.2;0.8
61879;PMS7003;47817;52.798;27.544;2023-05-07T01:56:33;0.8;0.8;0.8
61879;PMS7003;47817;52.798;27.544;2023-05-07T02:02:01;1.6;1;1
61879;PMS7003;47817;52.798;27.544;2023-05-07T02:06:45;2.4;1;0.8
61879;PMS7003;47817;52.798;27.544;2023-05-07T02:12:01;1.2;0.8;0.8
61879;PMS7003;47817;52.798;27.544;2023-05-07T02:16:41;1;0.8;0.6
61879;PMS7003;47817;52.798;27.544;2023-05-07T02:21:29;2;1.2;1
61879;PMS7003;47817;52.798;27.544;2023-05-07T02:26:15;1.2;1;1
61879;PMS7003;47817;52.798;27.544;2023-05-07T02:31:49;0.5;0.5;0.5
61879;PMS7003;47817;52.798;27.544;2023-05-07T02:36:37;1.2;1;1
61879;PMS7003;47817;52.798;27.544;2023-05-07T02:41:25;1.4;0.8;0.8
61879;PMS7003;47817;52.798;27.544;2023-05-07T02:46:49;1.6;0.8;0.6
61879;PMS7003;47817;52.798;27.544;2023-05-07T02:51:47;1.8;1;1
61879;PMS7003;47817;52.798;27.544;2023-05-07T02:56:29;2.6;1.2;0.8
61879;PMS7003;47817;52.798;27.544;2023-05-07T03:01:45;0.8;0.8;0.8
61879;PMS7003;47817;52.798;27.544;2023-05-07T03:06:15;1.4;1;0.8
61879;PMS7003;47817;52.798;27.544;2023-05-07T03:11:15;1.2;1;1
61879;PMS7003;47817;52.798;27.544;2023-05-07T03:16:53;2.2;1;1
61879;PMS7003;47817;52.798;27.544;2023-05-07T03:22:01;1.8;1.2;1
61879;PMS7003;47817;52.798;27.544;2023-05-07T03:26:29;1.6;1;0.6
61879;PMS7003;47817;52.798;27.544;2023-05-07T03:32:01;1.3;1;0.5
61879;PMS7003;47817;52.798;27.544;2023-05-07T03:37:01;2.6;1;0.8
61879;PMS7003;47817;52.798;27.544;2023-05-07T03:41:49;1.2;1.2;1
61879;PMS7003;47817;52.798;27.544;2023-05-07T03:46:35;1.2;1.2;1
61879;PMS7003;47817;52.798;27.544;2023-05-07T03:51:25;0.8;0.6;0.6
61879;PMS7003;47817;52.798;27.544;2023-05-07T03:56:53;2.4;1;0.8
61879;PMS7003;47817;52.798;27.544;2023-05-07T04:01:45;1.6;1.2;1
61879;PMS7003;47817;52.798;27.544;2023-05-07T04:06:16;1;1;0.8
61879;PMS7003;47817;52.798;27.544;2023-05-07T04:12:01;0.8;0.4;0.2
61879;PMS7003;47817;52.798;27.544;2023-05-07T04:17:01;1.4;1;0.6
61879;PMS7003;47817;52.798;27.544;2023-05-07T04:21:15;1.3;0.8;0.8
61879;PMS7003;47817;52.798;27.544;2023-05-07T04:26:41;1.5;0.8;0.5
61879;PMS7003;47817;52.798;27.544;2023-05-07T04:31:39;1;1;1
61879;PMS7003;47817;52.798;27.544;2023-05-07T04:36:25;1.8;1.3;1
61879;PMS7003;47817;52.798;27.544;2023-05-07T04:41:37;1.4;0.8;0.6
61879;PMS7003;47817;52.798;27.544;2023-05-07T04:46:49;1.4;1;1
61879;PMS7003;47817;52.798;27.544;2023-05-07T04:51:43;1.6;1.2;1
61879;PMS7003;47817;52.798;27.544;2023-05-07T04:57:03;1.5;1;0.8
61879;PMS7003;47817;52.798;27.544;2023-05-07T05:01:33;1.6;1.4;1.2
61879;PMS7003;47817;52.798;27.544;2023-05-07T05:07:01;8.2;8;7.4
61879;PMS7003;47817;52.798;27.544;2023-05-07T05:11:45;3.6;3.4;3.2
61879;PMS7003;47817;52.798;27.544;2023-05-07T05:17:01;1.6;1.4;1
61879;PMS7003;47817;52.798;27.544;2023-05-07T05:21:30;2;1.2;0.8
61879;PMS7003;47817;52.798;27.544;2023-05-07T05:26:53;1.6;1.2;0.8
61879;PMS7003;47817;52.798;27.544;2023-05-07T05:31:27;1;1;0.8
61879;PMS7003;47817;52.798;27.544;2023-05-07T05:36:49;1.3;1.3;0.3
61879;PMS7003;47817;52.798;27.544;2023-05-07T05:41:15;2;1;1
61879;PMS7003;47817;52.798;27.544;2023-05-07T05:46:27;1.2;1.2;1
61879;PMS7003;47817;52.798;27.544;2023-05-07T05:52:01;3;2;1
61879;PMS7003;47817;52.798;27.544;2023-05-07T05:56:15;1;1;1
61879;PMS7003;47817;52.798;27.544;2023-05-07T06:01:16;1.6;1.4;1
61879;PMS7003;47817;52.798;27.544;2023-05-07T06:07:03;2.3;1;1
61879;PMS7003;47817;52.798;27.544;2023-05-07T06:11:33;2.3;1.8;1.3
61879;PMS7003;47817;52.798;27.544;2023-05-07T06:16:21;1.2;1;0.8
61879;PMS7003;47817;52.798;27.544;2023-05-07T06:21:55;2;1.2;0.6
61879;PMS7003;47817;52.798;27.544;2023-05-07T06:27:03;2;1.2;0.8
61879;PMS7003;47817;52.798;27.544;2023-05-07T06:31:16;1.6;1.4;1
61879;PMS7003;47817;52.798;27.544;2023-05-07T06:36:15;1.8;1.4;0.8
61879;PMS7003;47817;52.798;27.544;2023-05-07T06:41:47;2.5;1.8;1
61879;PMS7003;47817;52.798;27.544;2023-05-07T06:47:03;2.6;2;1.4
61879;PMS7003;47817;52.798;27.544;2023-05-07T06:51:41;1.5;1.5;1.3
61879;PMS7003;47817;52.798;27.544;2023-05-07T06:56:15;2;1;0.8
61879;PMS7003;47817;52.798;27.544;2023-05-07T07:02:05;1.8;1.8;1.5
61879;PMS7003;47817;52.798;27.544;2023-05-07T07:06:17;2.3;1.5;1
61879;PMS7003;47817;52.798;27.544;2023-05-07T07:11:41;1.7;1.7;1.7
61879;PMS7003;47817;52.798;27.544;2023-05-07T07:17:05;1.2;1;1
61879;PMS7003;47817;52.798;27.544;2023-05-07T07:22:05;3.2;1.6;1.2
61879;PMS7003;47817;52.798;27.544;2023-05-07T07:26:27;1.4;1.2;0.8
61879;PMS7003;47817;52.798;27.544;2023-05-07T07:31:41;1.8;1.4;0.8
61879;PMS7003;47817;52.798;27.544;2023-05-07T07:36:49;1.8;1.8;1
61879;PMS7003;47817;52.798;27.544;2023-05-07T07:41:41;2.8;1.5;1
61879;PMS7003;47817;52.798;27.544;2023-05-07T07:46:41;1.6;1.6;1.4
61879;PMS7003;47817;52.798;27.544;2023-05-07T07:51:43;1.4;1.4;1
61879;PMS7003;47817;52.798;27.544;2023-05-07T07:56:27;2.8;1.6;1.6
61879;PMS7003;47817;52.798;27.544;2023-05-07T08:02:01;2.2;1.8;1.2
61879;PMS7003;47817;52.798;27.544;2023-05-07T08:07:01;1.8;1.4;1.2
61879;PMS7003;47817;52.798;27.544;2023-05-07T08:12:04;1.8;1.4;1.2
61879;PMS7003;47817;52.798;27.544;2023-05-07T08:16:49;2.8;1.8;1.4
61879;PMS7003;47817;52.798;27.544;2023-05-07T08:22:04;1.6;1.4;1.2
61879;PMS7003;47817;52.798;27.544;2023-05-07T08:26:15;1.8;1.5;1
61879;PMS7003;47817;52.798;27.544;2023-05-07T08:31:57;2.6;1.8;1.4
61879;PMS7003;47817;52.798;27.544;2023-05-07T08:36:33;2.4;1.8;1.6
61879;PMS7003;47817;52.798;27.544;2023-05-07T08:41:49;2;1.4;1.2
61879;PMS7003;47817;52.798;27.544;2023-05-07T08:46:31;1.5;1.5;1.3
61879;PMS7003;47817;52.798;27.544;2023-05-07T08:51:29;3;1.8;1.4
61879;PMS7003;47817;52.798;27.544;2023-05-07T08:57:05;2;1.4;1.2
61879;PMS7003;47817;52.798;27.544;2023-05-07T09:01:27;1.2;1.2;1.2
61879;PMS7003;47817;52.798;27.544;2023-05-07T09:06:15;1.8;1.2;1.2
61879;PMS7003;47817;52.798;27.544;2023-05-07T09:12:06;2.2;1.6;1.4
61879;PMS7003;47817;52.798;27.544;2023-05-07T09:16:33;1.6;1.2;1
61879;PMS7003;47817;52.798;27.544;2023-05-07T09:21:22;2.4;1.8;1.6
61879;PMS7003;47817;52.798;27.544;2023-05-07T09:26:57;1.8;1.4;1
61879;PMS7003;47817;52.798;27.544;2023-05-07T09:32:06;1.8;1.4;1
61879;PMS7003;47817;52.798;27.544;2023-05-07T09:36:15;1.4;1;0.8
61879;PMS7003;47817;52.798;27.544;2023-05-07T09:41:43;1.8;1.5;1.3
61879;PMS7003;47817;52.798;27.544;2023-05-07T09:47:06;1.4;0.8;0.8
61879;PMS7003;47817;52.798;27.544;2023-05-07T09:52:06;1.8;1.2;0.8
61879;PMS7003;47817;52.798;27.544;2023-05-07T09:56:42;2;1.4;1
61879;PMS7003;47817;52.798;27.544;2023-05-07T10:01:31;1.4;0.8;0.8
61879;PMS7003;47817;52.798;27.544;2023-05-07T10:07:06;5.6;4;3.2
61879;PMS7003;47817;52.798;27.544;2023-05-07T10:12:06;2.6;1.8;1.6
61879;PMS7003;47817;52.798;27.544;2023-05-07T10:16:26;1.6;1.4;1.2
61879;PMS7003;47817;52.798;27.544;2023-05-07T10:21:44;1.3;1.3;1
61879;PMS7003;47817;52.798;27.544;2023-05-07T10:26:57;1.2;1;1
61879;PMS7003;47817;52.798;27.544;2023-05-07T10:31:38;2;1.2;1.2
61879;PMS7003;47817;52.798;27.544;2023-05-07T10:36:41;1.6;1.4;1.2
61879;PMS7003;47817;52.798;27.544;2023-05-07T10:41:50;1.8;1.4;1
61879;PMS7003;47817;52.798;27.544;2023-05-07T10:46:58;1.6;0.8;0.8
61879;PMS7003;47817;52.798;27.544;2023-05-07T10:52:10;1.8;1.5;1.3
61879;PMS7003;47817;52.798;27.544;2023-05-07T10:56:50;4.6;2.8;2
61879;PMS7003;47817;52.798;27.544;2023-05-07T11:01:49;2.2;1.4;1.4
61879;PMS7003;47817;52.798;27.544;2023-05-07T11:07:54;2.8;2.6;2.2
61879;PMS7003;47817;52.798;27.544;2023-05-07T11:11:49;2;1.8;1.6
61879;PMS7003;47817;52.798;27.544;2023-05-07T11:16:42;1.4;1.4;1.4
61879;PMS7003;47817;52.798;27.544;2023-05-07T11:21:46;2;1.2;1
61879;PMS7003;47817;52.798;27.544;2023-05-07T11:27:06;3;2.4;1.8
61879;PMS7003;47817;52.798;27.544;2023-05-07T11:31:42;2.6;2;1.6
61879;PMS7003;47817;52.798;27.544;2023-05-07T11:37:06;2.2;1.8;1.4
61879;PMS7003;47817;52.798;27.544;2023-05-07T11:42:06;2;1.6;1.4
61879;PMS7003;47817;52.798;27.544;2023-05-07T11:46:50;2;1.4;1
61879;PMS7003;47817;52.798;27.544;2023-05-07T11:51:42;2.3;1.8;1.5
61879;PMS7003;47817;52.798;27.544;2023-05-07T11:56:33;1.2;1.2;1
61879;PMS7003;47817;52.798;27.544;2023-05-07T12:01:58;1.4;1.2;1
61879;PMS7003;47817;52.798;27.544;2023-05-07T12:06:44;2.2;1.6;1.2
61879;PMS7003;47817;52.798;27.544;2023-05-07T12:11:28;1.4;1.2;1.2
61879;PMS7003;47817;52.798;27.544;2023-05-07T12:17:06;1.2;1;0.6
61879;PMS7003;47817;52.798;27.544;2023-05-07T12:22:04;1.6;1.4;1.2
61879;PMS7003;47817;52.798;27.544;2023-05-07T12:26:16;1.8;1;0.8
61879;PMS7003;47817;52.798;27.544;2023-05-07T12:31:30;1.4;1;1
61879;PMS7003;47817;52.798;27.544;2023-05-07T12:36:50;1.4;1.4;1.2
61879;PMS7003;47817;52.798;27.544;2023-05-07T12:41:16;1.6;1.4;1.2
61879;PMS7003;47817;52.798;27.544;2023-05-07T12:46:42;1.6;1.2;1
61879;PMS7003;47817;52.798;27.544;2023-05-07T12:51:36;1.2;1;0.8
61879;PMS7003;47817;52.798;27.544;2023-05-07T12:56:30;1;1;1
61879;PMS7003;47817;52.798;27.544;2023-05-07T13:02:06;1.6;1.4;1.2
61879;PMS7003;47817;52.798;27.544;2023-05-07T13:06:22;1.4;1.4;1.2
61879;PMS7003;47817;52.798;27.544;2023-05-07T13:12:06;2.2;1.6;1.6
61879;PMS7003;47817;52.798;27.544;2023-05-07T13:16:50;1.6;1;0.8
61879;PMS7003;47817;52.798;27.544;2023-05-07T13:22:06;1;1;1
61879;PMS7003;47817;52.798;27.544;2023-05-07T13:26:42;0.4;0;0
61879;PMS7003;47817;52.798;27.544;2023-05-07T13:31:58;0.4;0.2;0.2
61879;PMS7003;47817;52.798;27.544;2023-05-07T13:36:28;0;0;0
61879;PMS7003;47817;52.798;27.544;2023-05-07T13:42:06;1.2;0.6;0.4
61879;PMS7003;47817;52.798;27.544;2023-05-07T13:46:42;0.6;0.2;0
61879;PMS7003;47817;52.798;27.544;2023-05-07T13:51:28;0.4;0.2;0
61879;PMS7003;47817;52.798;27.544;2023-05-07T13:57:06;0.3;0.3;0
61879;PMS7003;47817;52.798;27.544;2023-05-07T14:01:36;0.8;0.6;0
61879;PMS7003;47817;52.798;27.544;2023-05-07T14:06:42;0.2;0.2;0
61879;PMS7003;47817;52.798;27.544;2023-05-07T14:12:08;0.8;0.5;0.3
61879;PMS7003;47817;52.798;27.544;2023-05-07T14:16:28;0.8;0.4;0
61879;PMS7003;47817;52.798;27.544;2023-05-07T14:21:16;0.4;0.2;0
61879;PMS7003;47817;52.798;27.544;2023-05-07T14:26:58;1;0.4;0.2
61879;PMS7003;47817;52.798;27.544;2023-05-07T14:32:06;1.4;1;1
61879;PMS7003;47817;52.798;27.544;2023-05-07T14:36:34;0.4;0.2;0
61879;PMS7003;47817;52.798;27.544;2023-05-07T14:41:16;0.8;0.4;0
61879;PMS7003;47817;52.798;27.544;2023-05-07T14:47:06;0.8;0.4;0
61879;PMS7003;47817;52.798;27.544;2023-05-07T14:52:06;0.6;0.6;0.4
61879;PMS7003;47817;52.798;27.544;2023-05-07T14:56:42;1.4;0.4;0.4
61879;PMS7003;47817;52.798;27.544;2023-05-07T15:01:30;1.8;1;0.5
61879;PMS7003;47817;52.798;27.544;2023-05-07T15:06:56;3.8;2.6;2.2
61879;PMS7003;47817;52.798;27.544;2023-05-07T15:11:48;1.8;1.6;1
61879;PMS7003;47817;52.798;27.544;2023-05-07T15:16:28;1.4;1;0.8
61879;PMS7003;47817;52.798;27.544;2023-05-07T15:22:02;2.4;1.4;1.4
61879;PMS7003;47817;52.798;27.544;2023-05-07T15:27:04;2.2;1.6;1.6
61879;PMS7003;47817;52.798;27.544;2023-05-07T15:31:28;1.4;1.4;1.2
61879;PMS7003;47817;52.798;27.544;2023-05-07T15:36:40;1.2;1.2;1
61879;PMS7003;47817;52.798;27.544;2023-05-07T15:41:50;1.2;0.8;0.8
61879;PMS7003;47817;52.798;27.544;2023-05-07T15:46:42;1.4;1.2;0.6
61879;PMS7003;47817;52.798;27.544;2023-05-07T15:51:58;2;0.8;0.4
61879;PMS7003;47817;52.798;27.544;2023-05-07T15:56:50;1.6;1;0.8
61879;PMS7003;47817;52.798;27.544;2023-05-07T16:01:16;3.5;3.5;2.8
61879;PMS7003;47817;52.798;27.544;2023-05-07T16:07:06;1.8;1.6;1
61879;PMS7003;47817;52.798;27.544;2023-05-07T16:11:28;1.2;1;0.4
61879;PMS7003;47817;52.798;27.544;2023-05-07T16:16:54;1.2;1;0.6
61879;PMS7003;47817;52.798;27.544;2023-05-07T16:21:48;1.6;1;0.4
61879;PMS7003;47817;52.798;27.544;2023-05-07T16:27:06;1.3;1;0.5
61879;PMS7003;47817;52.798;27.544;2023-05-07T16:31:51;1.4;0.6;0.4
61879;PMS7003;47817;52.798;27.544;2023-05-07T16:36:56;1.2;1;0.4
61879;PMS7003;47817;52.798;27.544;2023-05-07T16:41:16;1.8;0.8;0.6
61879;PMS7003;47817;52.798;27.544;2023-05-07T16:46:50;3.2;3.2;2.4
61879;PMS7003;47817;52.798;27.544;2023-05-07T16:51:42;2.8;2.6;2.4
61879;PMS7003;47817;52.798;27.544;2023-05-07T16:56:58;0.8;0.6;0.6
61879;PMS7003;47817;52.798;27.544;2023-05-07T17:02:08;0.8;0.8;0.6
61879;PMS7003;47817;52.798;27.544;2023-05-07T17:06:36;2.8;2.5;2
61879;PMS7003;47817;52.798;27.544;2023-05-07T17:11:16;1;0.8;0.6
61879;PMS7003;47817;52.798;27.544;2023-05-07T17:17:08;0.6;0.6;0.4
61879;PMS7003;47817;52.798;27.544;2023-05-07T17:21:52;1.6;0.8;0.8
61879;PMS7003;47817;52.798;27.544;2023-05-07T17:26:16;2;1.6;1.2
61879;PMS7003;47817;52.798;27.544;2023-05-07T17:31:56;1.8;1.6;1.2
61879;PMS7003;47817;52.798;27.544;2023-05-07T17:37:06;3.8;3.6;2.8
61879;PMS7003;47817;52.798;27.544;2023-05-07T17:41:50;2.4;2.2;1.8
61879;PMS7003;47817;52.798;27.544;2023-05-07T17:46:42;1.6;1.6;1.6
61879;PMS7003;47817;52.798;27.544;2023-05-07T17:51:50;2.2;1.4;1.2
61879;PMS7003;47817;52.798;27.544;2023-05-07T17:57:06;2.3;1.8;1
61879;PMS7003;47817;52.798;27.544;2023-05-07T18:01:16;4.8;4.2;3.4
61879;PMS7003;47817;52.798;27.544;2023-05-07T18:06:34;2.2;1.8;1.6
61879;PMS7003;47817;52.798;27.544;2023-05-07T18:12:06;2.2;2.2;1.8
61879;PMS7003;47817;52.798;27.544;2023-05-07T18:16:50;2.4;1.8;1.4
61879;PMS7003;47817;52.798;27.544;2023-05-07T18:21:16;2;1.8;1.4
61879;PMS7003;47817;52.798;27.544;2023-05-07T18:26:42;3;1.6;1.4
61879;PMS7003;47817;52.798;27.544;2023-05-07T18:31:58;2.8;2.3;2
61879;PMS7003;47817;52.798;27.544;2023-05-07T18:36:50;6;3;2.2
61879;PMS7003;47817;52.798;27.544;2023-05-07T18:41:58;1.8;1.8;1.2
61879;PMS7003;47817;52.798;27.544;2023-05-07T18:47:06;3;1.8;1.2
61879;PMS7003;47817;52.798;27.544;2023-05-07T18:51:28;2.6;1.6;1.4
61879;PMS7003;47817;52.798;27.544;2023-05-07T18:57:04;4;3.8;2.4
61879;PMS7003;47817;52.798;27.544;2023-05-07T19:01:52;3.8;2.8;2.2
61879;PMS7003;47817;52.798;27.544;2023-05-07T19:06:42;1.8;1.6;1.2
61879;PMS7003;47817;52.798;27.544;2023-05-07T19:11:52;2;1.5;1
61879;PMS7003;47817;52.798;27.544;2023-05-07T19:16:36;1.2;1.2;0.8
61879;PMS7003;47817;52.798;27.544;2023-05-07T19:22:08;1.4;1.4;1
61879;PMS7003;47817;52.798;27.544;2023-05-07T19:26:52;2;1.6;1.4
61879;PMS7003;47817;52.798;27.544;2023-05-07T19:32:06;2.2;2;2
61879;PMS7003;47817;52.798;27.544;2023-05-07T19:36:42;2.2;1.4;1
61879;PMS7003;47817;52.798;27.544;2023-05-07T19:41:58;2;1.8;1.6
61879;PMS7003;47817;52.798;27.544;2023-05-07T19:46:16;1.4;1.4;1.2
61879;PMS7003;47817;52.798;27.544;2023-05-07T19:51:50;2;1.3;1.3
61879;PMS7003;47817;52.798;27.544;2023-05-07T19:56:16;2.8;1.6;1.2
61879;PMS7003;47817;52.798;27.544;2023-05-07T20:01:16;2;1.8;1.8
61879;PMS7003;47817;52.798;27.544;2023-05-07T20:07:06;1.6;1.6;1.6
61879;PMS7003;47817;52.798;27.544;2023-05-07T20:11:16;2;1.6;1.4
61879;PMS7003;47817;52.798;27.544;2023-05-07T20:16:16;2;2;1.2
61879;PMS7003;47817;52.798;27.544;2023-05-07T20:22:06;2.2;1.4;1
61879;PMS7003;47817;52.798;27.544;2023-05-07T20:26:32;4;2.3;1.8
61879;PMS7003;47817;52.798;27.544;2023-05-07T20:31:50;4.2;2.2;2
61879;PMS7003;47817;52.798;27.544;2023-05-07T20:36:18;7.2;6.2;5.6
61879;PMS7003;47817;52.798;27.544;2023-05-07T20:42:06;16.8;15.4;14.8
61879;PMS7003;47817;52.798;27.544;2023-05-07T20:46:16;32.4;30;26.4
61879;PMS7003;47817;52.798;27.544;2023-05-07T20:51:42;25.6;24.2;22.2
61879;PMS7003;47817;52.798;27.544;2023-05-07T20:57:06;34.4;31.4;25.8
61879;PMS7003;47817;52.798;27.544;2023-05-07T21:02:06;40.2;30.8;24.6
61879;PMS7003;47817;52.798;27.544;2023-05-07T21:06:28;27.6;23.2;18.6
61879;PMS7003;47817;52.798;27.544;2023-05-07T21:11:16;13.8;11.8;9
61879;PMS7003;47817;52.798;27.544;2023-05-07T21:17:06;9;5;3.5
61879;PMS7003;47817;52.798;27.544;2023-05-07T21:21:50;4.6;3.2;2.6
61879;PMS7003;47817;52.798;27.544;2023-05-07T21:26:30;2.8;1.8;1.8
61879;PMS7003;47817;52.798;27.544;2023-05-07T21:31:42;3.4;2.2;1.8
61879;PMS7003;47817;52.798;27.544;2023-05-07T21:36:58;2;2;2
61879;PMS7003;47817;52.798;27.544;2023-05-07T21:41:28;3;2.2;1.8
61879;PMS7003;47817;52.798;27.544;2023-05-07T21:46:28;2.4;2.2;2
61879;PMS7003;47817;52.798;27.544;2023-05-07T21:52:04;2;1.8;1.6
61879;PMS7003;47817;52.798;27.544;2023-05-07T21:56:42;3.5;2;1.5
61879;PMS7003;47817;52.798;27.544;2023-05-07T22:02:06;3;2;1.6
61879;PMS7003;47817;52.798;27.544;2023-05-07T22:06:48;2.2;1.6;1.4
61879;PMS7003;47817;52.798;27.544;2023-05-07T22:11:28;1.6;1.6;1.6
61879;PMS7003;47817;52.798;27.544;2023-05-07T22:16:48;1.8;1.3;1
61879;PMS7003;47817;52.798;27.544;2023-05-07T22:21:16;2.4;1.4;1.4
61879;PMS7003;47817;52.798;27.544;2023-05-07T22:26:16;2.8;2;2
61879;PMS7003;47817;52.798;27.544;2023-05-07T22:31:58;2.8;2.2;1.8
61879;PMS7003;47817;52.798;27.544;2023-05-07T22:37:04;4;2.8;1.8
61879;PMS7003;47817;52.798;27.544;2023-05-07T22:41:42;3.6;1.8;1.2
61879;PMS7003;47817;52.798;27.544;2023-05-07T22:47:04;3;1.6;1.4
61879;PMS7003;47817;52.798;27.544;2023-05-07T22:51:50;3.4;2;1.8
61879;PMS7003;47817;52.798;27.544;2023-05-07T22:56:50;3;2.6;2
61879;PMS7003;47817;52.798;27.544;2023-05-07T23:01:42;3.2;1.8;1.6
61879;PMS7003;47817;52.798;27.544;2023-05-07T23:06:28;2.8;2.2;1.8
61879;PMS7003;47817;52.798;27.544;2023-05-07T23:11:58;3;2.2;1.6
61879;PMS7003;47817;52.798;27.544;2023-05-07T23:16:50;4.5;2.5;2
61879;PMS7003;47817;52.798;27.544;2023-05-07T23:21:16;2;1.8;1.6
61879;PMS7003;47817;52.798;27.544;2023-05-07T23:27:06;1.8;1.6;1.2
61879;PMS7003;47817;52.798;27.544;2023-05-07T23:32:06;1.8;1.8;1.6
61879;PMS7003;47817;52.798;27.544;2023-05-07T23:36:24;1.4;1.4;1
61879;PMS7003;47817;52.798;27.544;2023-05-07T23:42:08;2.2;1.2;1
61879;PMS7003;47817;52.798;27.544;2023-05-07T23:47:08;2;1.8;1
61879;PMS7003;47817;52.798;27.544;2023-05-07T23:51:24;1.8;1.2;1
61879;PMS7003;47817;52.798;27.544;2023-05-07T23:56:42;1.2;1.2;1
